Time;durP1;ratioP1;P1;durP2;ratioP2;P2;SDS_P1;SDS_P2;PMS_P1;PMS_P2;Temp;Humidity;BMP_temperature;BMP_pressure;BME280_temperature;BME280_humidity;BME280_pressure;Samples;Min_cycle;Max_cycle;Signal;HPM_P1;HPM_P2
2024/01/18 00:00:04;;;;;;;46.58;28.60;;;384.40;2329.60;;;;;;5075490;28;20029;-78
2024/01/18 00:02:30;;;;;;;48.28;32.35;;;359.10;2329.60;;;;;;5075356;28;20455;-71
2024/01/18 00:04:56;;;;;;;40.95;25.13;;;359.10;2329.60;;;;;;5075549;28;20060;-79
2024/01/18 00:07:22;;;;;;;76.03;46.88;;;359.10;2329.60;;;;;;5075578;28;20045;-79
2024/01/18 00:09:48;;;;;;;68.15;44.22;;;359.00;2329.60;;;;;;5074249;28;20549;-79
2024/01/18 00:12:14;;;;;;;70.47;47.22;;;358.90;2329.60;;;;;;5085036;28;20032;-78
2024/01/18 00:14:39;;;;;;;51.28;32.10;;;358.80;2329.60;;;;;;5091749;28;20030;-69
2024/01/18 00:17:05;;;;;;;22.67;13.50;;;358.90;2329.60;;;;;;5080741;28;20060;-79
2024/01/18 00:19:31;;;;;;;24.00;16.38;;;359.00;2329.60;;;;;;5081142;28;20425;-77
2024/01/18 00:21:57;;;;;;;42.67;26.88;;;359.20;2329.60;;;;;;5081177;28;20052;-80
2024/01/18 00:24:23;;;;;;;32.70;18.52;;;384.10;2329.60;;;;;;5085163;28;20021;-78
2024/01/18 00:26:48;;;;;;;17.35;8.85;;;384.20;2329.60;;;;;;5071375;28;20051;-75
2024/01/18 00:29:14;;;;;;;13.32;7.35;;;384.40;2329.60;;;;;;5071552;28;20056;-78
2024/01/18 00:31:40;;;;;;;18.83;10.70;;;384.60;2329.60;;;;;;5084837;28;20023;-80
2024/01/18 00:34:06;;;;;;;39.75;17.90;;;384.70;2329.60;;;;;;5071244;28;20044;-79
2024/01/18 00:36:31;;;;;;;21.23;13.07;;;384.60;2329.60;;;;;;5071219;28;20039;-79
2024/01/18 00:38:57;;;;;;;24.15;14.75;;;384.70;2329.60;;;;;;5084789;28;20017;-79
2024/01/18 00:41:29;;;;;;;20.58;10.38;;;384.70;2329.60;;;;;;5075235;28;20116;-76
2024/01/18 00:43:55;;;;;;;27.42;16.55;;;384.70;2329.60;;;;;;5084551;28;20020;-78
2024/01/18 00:46:21;;;;;;;455.92;241.43;;;384.60;2329.60;;;;;;5080730;28;20028;-76
2024/01/18 00:48:47;;;;;;;37.35;21.95;;;384.60;2329.60;;;;;;5071018;28;20111;-77
2024/01/18 00:51:13;;;;;;;31.23;17.20;;;384.50;2329.60;;;;;;5081951;28;20431;-78
2024/01/18 00:53:39;;;;;;;21.67;12.63;;;384.70;2329.60;;;;;;5085167;28;20032;-79
2024/01/18 00:56:09;;;;;;;5.55;2.58;;;384.70;2329.60;;;;;;5077932;28;20401;-79
2024/01/18 00:58:36;;;;;;;41.42;18.65;;;409.60;2355.20;;;;;;5090087;28;20016;-76
2024/01/18 01:01:02;;;;;;;50.03;23.27;;;409.70;2355.20;;;;;;5068852;28;20016;-70
2024/01/18 01:03:28;;;;;;;24.35;15.65;;;409.70;2355.20;;;;;;5084867;28;20052;-78
2024/01/18 01:05:54;;;;;;;47.83;25.30;;;409.80;2355.20;;;;;;5086614;28;20032;-72
2024/01/18 01:08:19;;;;;;;57.92;29.60;;;409.70;2355.20;;;;;;5074782;28;20549;-74
2024/01/18 01:10:45;;;;;;;55.15;24.73;;;409.80;2355.20;;;;;;5070734;28;20095;-73
2024/01/18 01:13:11;;;;;;;8.05;4.22;;;409.80;2355.20;;;;;;5084775;28;20028;-71
2024/01/18 01:15:37;;;;;;;19.50;10.10;;;409.70;2355.20;;;;;;5090834;28;20624;-76
2024/01/18 01:18:03;;;;;;;9.60;4.90;;;409.90;2355.20;;;;;;5090183;28;20476;-74
2024/01/18 01:20:28;;;;;;;99.47;50.33;;;410.00;2355.20;;;;;;5091039;28;20108;-71
2024/01/18 01:22:54;;;;;;;50.38;25.23;;;409.90;2355.20;;;;;;5090842;28;20089;-70
2024/01/18 01:25:22;;;;;;;112.75;51.10;;;410.00;2355.20;;;;;;5090156;28;20036;-73
2024/01/18 01:27:48;;;;;;;6.30;3.47;;;410.00;2355.20;;;;;;5090328;28;20564;-72
2024/01/18 01:30:14;;;;;;;45.53;22.60;;;410.20;2355.20;;;;;;5090041;28;20035;-71
2024/01/18 01:32:40;;;;;;;240.85;115.22;;;410.20;2355.20;;;;;;5089966;28;20031;-71
2024/01/18 01:35:06;;;;;;;33.35;15.48;;;410.10;2355.20;;;;;;5090182;28;20024;-74
2024/01/18 01:37:32;;;;;;;11.88;4.75;;;410.10;2355.20;;;;;;5090226;28;20028;-71
2024/01/18 01:39:57;;;;;;;3.17;1.80;;;410.20;2355.20;;;;;;5088920;28;20099;-73
2024/01/18 01:42:24;;;;;;;60.88;25.70;;;410.20;2355.20;;;;;;5078221;28;20470;-77
2024/01/18 01:44:52;;;;;;;25.42;12.88;;;410.20;2355.20;;;;;;5089907;28;20028;-73
2024/01/18 01:47:18;;;;;;;23.27;7.82;;;410.20;2355.20;;;;;;5090035;28;20028;-73
2024/01/18 01:49:45;;;;;;;5.53;2.30;;;410.20;2355.20;;;;;;5087449;28;20031;-75
2024/01/18 01:52:11;;;;;;;13.63;5.70;;;410.30;2355.20;;;;;;5069599;28;20405;-70
2024/01/18 01:54:37;;;;;;;13.38;6.80;;;410.20;2355.20;;;;;;5083136;28;20461;-71
2024/01/18 01:57:04;;;;;;;30.27;13.40;;;410.20;2355.20;;;;;;5078728;28;20047;-72
2024/01/18 01:59:32;;;;;;;10.93;5.05;;;410.20;2355.20;;;;;;5089546;28;20046;-72
2024/01/18 02:01:58;;;;;;;2.63;1.80;;;410.20;2355.20;;;;;;5090368;28;20036;-71
2024/01/18 02:04:25;;;;;;;19.45;11.10;;;410.30;2355.20;;;;;;5075829;28;20571;-72
2024/01/18 02:06:53;;;;;;;7.68;4.72;;;410.30;2355.20;;;;;;5079808;28;20033;-75
2024/01/18 02:09:20;;;;;;;2.53;1.60;;;410.50;2355.20;;;;;;5069430;28;20382;-71
2024/01/18 02:11:46;;;;;;;3.10;1.90;;;410.50;2355.20;;;;;;5069332;28;20017;-72
2024/01/18 02:14:12;;;;;;;5.03;2.22;;;410.30;2355.20;;;;;;5085783;28;20016;-72
2024/01/18 02:16:39;;;;;;;5.85;3.83;;;410.30;2355.20;;;;;;5089654;28;20449;-71
2024/01/18 02:19:05;;;;;;;5.97;2.55;;;410.30;2355.20;;;;;;5072092;28;20012;-71
2024/01/18 02:21:30;;;;;;;3.88;2.25;;;410.40;2355.20;;;;;;5068972;28;20429;-71
2024/01/18 02:24:14;;;;;;;3.53;2.13;;;410.30;2355.20;;;;;;5071869;28;20028;-76
2024/01/18 02:26:40;;;;;;;6.53;3.47;;;410.30;2355.20;;;;;;5089012;28;20359;-73
2024/01/18 02:29:06;;;;;;;5.43;4.43;;;410.50;2355.20;;;;;;5089166;28;20103;-76
2024/01/18 02:31:32;;;;;;;6.30;3.15;;;410.50;2355.20;;;;;;5089051;28;20107;-75
2024/01/18 02:33:57;;;;;;;8.45;2.72;;;410.50;2355.20;;;;;;5088144;28;20107;-78
2024/01/18 02:36:24;;;;;;;4.80;2.72;;;410.50;2355.20;;;;;;5089168;28;20481;-72
2024/01/18 02:38:51;;;;;;;4.80;2.53;;;410.50;2355.20;;;;;;5082316;28;20024;-76
2024/01/18 02:41:17;;;;;;;7.95;5.57;;;435.20;2355.20;;;;;;5069597;28;20532;-78
2024/01/18 02:43:43;;;;;;;29.58;17.10;;;435.20;2355.20;;;;;;5088157;28;20028;-75
2024/01/18 02:46:09;;;;;;;9.23;6.30;;;435.20;2355.20;;;;;;5089122;28;20043;-75
2024/01/18 02:48:36;;;;;;;13.32;6.80;;;435.30;2355.20;;;;;;5088763;28;20028;-76
2024/01/18 02:51:01;;;;;;;4.57;3.13;;;435.30;2355.20;;;;;;5089194;28;20426;-73
2024/01/18 02:53:27;;;;;;;10.95;3.10;;;435.30;2329.60;;;;;;5089095;28;20099;-78
2024/01/18 02:55:53;;;;;;;3.70;2.05;;;435.30;2329.60;;;;;;5089155;28;20035;-73
2024/01/18 02:58:19;;;;;;;7.60;3.08;;;435.40;2304.00;;;;;;5075505;28;20027;-76
2024/01/18 03:00:45;;;;;;;9.07;3.10;;;435.40;2304.00;;;;;;5089226;28;20028;-74
2024/01/18 03:03:12;;;;;;;5.47;3.20;;;435.40;2304.00;;;;;;5088232;28;20059;-75
2024/01/18 03:05:37;;;;;;;11.07;9.15;;;435.40;2304.00;;;;;;5088944;28;20051;-78
2024/01/18 03:08:04;;;;;;;7.22;3.13;;;435.40;2278.40;;;;;;5088772;28;20125;-71
2024/01/18 03:10:29;;;;;;;5.03;2.25;;;435.40;2278.40;;;;;;5075249;28;20016;-79
2024/01/18 03:12:55;;;;;;;6.43;2.65;;;435.40;2278.40;;;;;;5089084;28;20106;-71
2024/01/18 03:15:21;;;;;;;4.82;3.25;;;435.40;2278.40;;;;;;5088617;28;20016;-72
2024/01/18 03:17:47;;;;;;;10.50;2.70;;;435.30;2278.40;;;;;;5075434;28;20354;-73
2024/01/18 03:20:12;;;;;;;4.55;2.63;;;435.40;2278.40;;;;;;5088517;28;20081;-71
2024/01/18 03:22:39;;;;;;;8.20;3.15;;;435.40;2252.80;;;;;;5082163;28;20024;-80
2024/01/18 03:25:06;;;;;;;11.57;3.95;;;435.40;2252.80;;;;;;5086317;28;20027;-79
2024/01/18 03:27:31;;;;;;;8.30;3.63;;;435.40;2252.80;;;;;;5086480;28;20478;-78
2024/01/18 03:29:57;;;;;;;6.28;2.15;;;435.40;2252.80;;;;;;5085077;28;20066;-71
2024/01/18 03:32:23;;;;;;;4.50;2.45;;;435.30;2278.40;;;;;;5091963;28;20024;-79
2024/01/18 03:34:50;;;;;;;7.70;3.47;;;435.30;2278.40;;;;;;5092764;28;20350;-71
2024/01/18 03:37:16;;;;;;;9.48;3.78;;;435.30;2278.40;;;;;;5073076;28;20411;-72
2024/01/18 03:39:42;;;;;;;7.60;3.20;;;435.30;2278.40;;;;;;5083637;28;20055;-78
2024/01/18 03:42:07;;;;;;;8.10;3.33;;;435.20;2278.40;;;;;;5078944;28;20478;-78
2024/01/18 03:44:34;;;;;;;8.48;3.20;;;435.20;2278.40;;;;;;5080020;28;20478;-78
2024/01/18 03:47:00;;;;;;;17.83;6.25;;;410.50;2278.40;;;;;;5090784;28;20612;-71
2024/01/18 03:49:26;;;;;;;11.27;4.40;;;435.20;2278.40;;;;;;5092314;28;20095;-78
2024/01/18 03:51:52;;;;;;;9.73;3.30;;;410.50;2278.40;;;;;;5092205;28;20016;-76
2024/01/18 03:54:21;;;;;;;5.45;2.78;;;435.30;2252.80;;;;;;5092272;28;20698;-71
2024/01/18 03:56:47;;;;;;;7.07;3.47;;;435.20;2252.80;;;;;;5092258;28;20027;-70
2024/01/18 03:59:16;;;;;;;11.23;3.58;;;435.20;2252.80;;;;;;5091969;28;20023;-71
2024/01/18 04:01:43;;;;;;;6.10;2.80;;;435.20;2252.80;;;;;;5091547;28;20027;-70
2024/01/18 04:04:09;;;;;;;10.60;3.40;;;435.30;2252.80;;;;;;5078607;28;20071;-79
2024/01/18 04:06:35;;;;;;;8.23;3.92;;;435.30;2227.20;;;;;;5071653;28;20060;-71
2024/01/18 04:09:00;;;;;;;8.75;5.05;;;435.30;2227.20;;;;;;5071800;28;20052;-81
2024/01/18 04:11:26;;;;;;;11.57;5.05;;;435.30;2227.20;;;;;;5071945;28;20016;-79
2024/01/18 04:13:52;;;;;;;4.68;2.90;;;435.30;2227.20;;;;;;5084871;28;20081;-72
2024/01/18 04:16:18;;;;;;;4.10;2.60;;;435.20;2252.80;;;;;;5076000;28;20424;-70
2024/01/18 04:18:44;;;;;;;10.77;9.68;;;410.50;2252.80;;;;;;5071171;28;20059;-76
2024/01/18 04:21:10;;;;;;;8.82;3.08;;;435.20;2252.80;;;;;;5078195;28;20024;-77
2024/01/18 04:23:36;;;;;;;5.47;2.05;;;435.20;2252.80;;;;;;5077939;28;20070;-71
2024/01/18 04:26:02;;;;;;;6.57;3.22;;;435.20;2278.40;;;;;;5071191;28;20024;-70
2024/01/18 04:28:28;;;;;;;10.15;6.15;;;410.50;2278.40;;;;;;5071429;28;20029;-76
2024/01/18 04:30:54;;;;;;;11.77;6.72;;;410.40;2278.40;;;;;;5078159;28;20069;-79
2024/01/18 04:33:20;;;;;;;13.57;8.32;;;410.50;2278.40;;;;;;5091066;28;20115;-74
2024/01/18 04:35:45;;;;;;;17.55;9.63;;;410.50;2278.40;;;;;;5084621;28;20036;-79
2024/01/18 04:38:12;;;;;;;18.00;10.30;;;410.50;2278.40;;;;;;5071185;28;20028;-71
2024/01/18 04:40:38;;;;;;;17.85;9.27;;;410.40;2278.40;;;;;;5078316;28;20016;-70
2024/01/18 04:43:03;;;;;;;12.90;6.10;;;410.50;2278.40;;;;;;5091189;28;20054;-69
2024/01/18 04:45:29;;;;;;;9.93;7.10;;;410.40;2278.40;;;;;;5091264;28;20747;-71
2024/01/18 04:47:56;;;;;;;21.80;13.05;;;410.40;2278.40;;;;;;5077185;28;20493;-70
2024/01/18 04:50:26;;;;;;;9.93;6.38;;;410.30;2304.00;;;;;;5078166;28;20020;-77
2024/01/18 04:52:52;;;;;;;35.28;22.02;;;410.30;2278.40;;;;;;5077251;28;20020;-75
2024/01/18 04:55:18;;;;;;;39.38;24.95;;;410.30;2304.00;;;;;;5091233;28;20016;-79
2024/01/18 04:57:44;;;;;;;17.13;10.20;;;410.20;2329.60;;;;;;5090721;28;20085;-72
2024/01/18 05:00:11;;;;;;;17.48;8.95;;;410.10;2329.60;;;;;;5090690;28;20367;-77
2024/01/18 05:02:38;;;;;;;9.85;4.70;;;410.10;2304.00;;;;;;5089151;28;20044;-70
2024/01/18 05:05:04;;;;;;;5.43;3.20;;;410.10;2304.00;;;;;;5078730;28;20036;-79
2024/01/18 05:07:30;;;;;;;15.52;9.00;;;410.20;2304.00;;;;;;5090495;28;20485;-72
2024/01/18 05:09:57;;;;;;;18.35;9.73;;;410.20;2304.00;;;;;;5089554;28;20481;-78
2024/01/18 05:12:23;;;;;;;4.97;3.53;;;410.20;2304.00;;;;;;5090597;28;20161;-76
2024/01/18 05:14:49;;;;;;;7.57;4.00;;;410.20;2304.00;;;;;;5090863;28;20040;-75
2024/01/18 05:17:16;;;;;;;6.85;3.40;;;410.20;2304.00;;;;;;5075410;28;20028;-74
2024/01/18 05:19:43;;;;;;;8.98;4.78;;;410.20;2278.40;;;;;;5070717;28;20020;-74
2024/01/18 05:22:09;;;;;;;6.32;3.47;;;410.20;2278.40;;;;;;5071876;28;20024;-72
2024/01/18 05:24:35;;;;;;;7.10;3.15;;;410.20;2278.40;;;;;;5090635;28;20012;-80
2024/01/18 05:27:01;;;;;;;5.65;2.83;;;410.20;2278.40;;;;;;5090359;28;20042;-79
2024/01/18 05:29:26;;;;;;;4.60;2.42;;;410.20;2278.40;;;;;;5090644;28;20024;-79
2024/01/18 05:31:52;;;;;;;5.95;5.35;;;410.20;2278.40;;;;;;5090143;28;20070;-79
2024/01/18 05:34:19;;;;;;;5.07;3.25;;;410.20;2278.40;;;;;;5090163;28;20028;-79
2024/01/18 05:36:45;;;;;;;4.30;2.30;;;410.10;2278.40;;;;;;5078092;28;20036;-78
2024/01/18 05:39:11;;;;;;;7.53;2.45;;;410.20;2252.80;;;;;;5077223;28;20067;-79
2024/01/18 05:41:37;;;;;;;4.97;2.13;;;410.30;2227.20;;;;;;5076893;28;20060;-75
2024/01/18 05:44:03;;;;;;;4.75;2.80;;;410.30;2227.20;;;;;;5090302;28;20016;-80
2024/01/18 05:46:28;;;;;;;8.80;5.50;;;410.50;2201.60;;;;;;5089688;28;20634;-79
2024/01/18 05:48:54;;;;;;;3.15;2.28;;;410.50;2201.60;;;;;;5071681;28;20028;-79
2024/01/18 05:51:20;;;;;;;5.13;3.13;;;435.20;2201.60;;;;;;5076521;28;20760;-78
2024/01/18 05:53:46;;;;;;;5.70;3.55;;;435.20;2176.00;;;;;;5073862;28;20549;-80
2024/01/18 05:56:11;;;;;;;5.85;3.65;;;435.30;2176.00;;;;;;5068482;28;20493;-76
2024/01/18 05:58:37;;;;;;;7.72;3.58;;;435.30;2150.40;;;;;;5076361;28;20078;-79
2024/01/18 06:01:03;;;;;;;5.97;4.13;;;435.30;2176.00;;;;;;5086287;28;20025;-81
2024/01/18 06:03:29;;;;;;;7.05;4.95;;;435.40;2150.40;;;;;;5071512;28;20048;-72
2024/01/18 06:05:58;;;;;;;7.90;4.45;;;435.30;2150.40;;;;;;5080388;28;20024;-80
2024/01/18 06:08:24;;;;;;;6.05;4.15;;;435.30;2150.40;;;;;;5082048;28;20135;-80
2024/01/18 06:10:50;;;;;;;7.75;4.47;;;435.30;2176.00;;;;;;5070003;28;20032;-87
2024/01/18 06:13:16;;;;;;;4.85;3.83;;;435.30;2150.40;;;;;;5074178;28;20033;-88
2024/01/18 06:15:41;;;;;;;6.90;4.35;;;435.30;2150.40;;;;;;5089284;28;20016;-87
2024/01/18 06:18:07;;;;;;;7.20;3.45;;;435.30;2150.40;;;;;;5090541;28;20024;-86
2024/01/18 06:20:33;;;;;;;7.18;2.72;;;435.30;2150.40;;;;;;5077713;28;20028;-86
2024/01/18 06:22:59;;;;;;;8.10;5.20;;;435.30;2150.40;;;;;;5070615;28;20020;-88
2024/01/18 06:25:25;;;;;;;5.07;2.83;;;435.30;2150.40;;;;;;5084051;28;20099;-87
2024/01/18 06:27:50;;;;;;;4.45;2.50;;;435.30;2150.40;;;;;;5081513;28;20029;-80
2024/01/18 06:30:18;;;;;;;3.95;2.65;;;435.30;2150.40;;;;;;5071935;28;20021;-88
2024/01/18 06:32:44;;;;;;;5.40;3.40;;;435.20;2176.00;;;;;;5090639;28;20036;-86
2024/01/18 06:35:10;;;;;;;5.90;2.85;;;435.20;2150.40;;;;;;5074887;28;20029;-84
2024/01/18 06:37:36;;;;;;;6.72;3.20;;;435.20;2176.00;;;;;;5078547;28;20484;-83
2024/01/18 06:40:02;;;;;;;4.63;2.75;;;410.50;2176.00;;;;;;5075898;28;20469;-83
2024/01/18 06:42:28;;;;;;;9.18;4.22;;;435.20;2150.40;;;;;;5090024;28;20512;-88
2024/01/18 06:44:54;;;;;;;6.72;4.10;;;435.20;2150.40;;;;;;5077431;28;20029;-86
2024/01/18 06:47:20;;;;;;;6.32;3.42;;;410.50;2176.00;;;;;;5083754;28;20043;-73
2024/01/18 06:49:46;;;;;;;7.85;3.40;;;410.50;2150.40;;;;;;5086962;28;20020;-77
2024/01/18 06:52:13;;;;;;;13.07;7.63;;;410.50;2150.40;;;;;;5091397;28;20038;-77
2024/01/18 06:54:42;;;;;;;35.35;21.58;;;435.20;2124.80;;;;;;5092554;28;20098;-72
2024/01/18 06:57:07;;;;;;;56.67;38.03;;;410.50;2150.40;;;;;;5090366;28;20089;-73
2024/01/18 06:59:33;;;;;;;43.83;30.77;;;410.40;2176.00;;;;;;5093852;28;20115;-81
2024/01/18 07:01:59;;;;;;;39.08;28.35;;;410.30;2227.20;;;;;;5093921;28;20028;-75
2024/01/18 07:04:25;;;;;;;40.03;30.40;;;410.20;2227.20;;;;;;5094268;28;20040;-76
2024/01/18 07:06:51;;;;;;;42.78;28.95;;;410.20;2227.20;;;;;;5086021;28;20478;-77
2024/01/18 07:09:17;;;;;;;47.90;30.83;;;410.00;2252.80;;;;;;5076841;28;20078;-75
2024/01/18 07:11:42;;;;;;;29.77;19.48;;;410.00;2227.20;;;;;;5094621;28;20542;-75
2024/01/18 07:14:08;;;;;;;28.08;19.15;;;410.00;2227.20;;;;;;5093909;28;20496;-76
2024/01/18 07:16:34;;;;;;;41.00;25.58;;;410.00;2201.60;;;;;;5093100;28;20481;-76
2024/01/18 07:19:00;;;;;;;26.20;17.00;;;410.20;2201.60;;;;;;5077066;28;20461;-75
2024/01/18 07:21:25;;;;;;;23.75;16.20;;;410.20;2201.60;;;;;;5082210;28;20381;-73
2024/01/18 07:23:51;;;;;;;104.60;78.82;;;410.20;2176.00;;;;;;5079126;28;20027;-72
2024/01/18 07:26:17;;;;;;;41.45;27.10;;;410.10;2227.20;;;;;;5092990;28;20028;-75
2024/01/18 07:28:43;;;;;;;38.50;26.55;;;410.00;2227.20;;;;;;5092562;28;20050;-73
2024/01/18 07:31:09;;;;;;;54.67;39.97;;;410.00;2227.20;;;;;;5092927;28;20465;-74
2024/01/18 07:33:34;;;;;;;58.50;42.25;;;409.90;2227.20;;;;;;5092024;28;20085;-76
2024/01/18 07:36:00;;;;;;;55.15;42.28;;;409.80;2252.80;;;;;;5092721;28;20064;-71
2024/01/18 07:38:26;;;;;;;61.47;45.25;;;409.80;2278.40;;;;;;5090319;28;20359;-73
2024/01/18 07:40:52;;;;;;;75.05;49.25;;;409.70;2304.00;;;;;;5081383;28;20059;-73
2024/01/18 07:43:18;;;;;;;60.78;42.08;;;409.70;2278.40;;;;;;5092661;28;20454;-77
2024/01/18 07:45:44;;;;;;;48.33;30.25;;;409.70;2304.00;;;;;;5083890;28;20012;-80
2024/01/18 07:48:10;;;;;;;36.78;26.60;;;409.80;2252.80;;;;;;5087934;28;20543;-79
2024/01/18 07:50:37;;;;;;;47.88;33.70;;;409.90;2227.20;;;;;;5092964;28;20016;-84
2024/01/18 07:53:03;;;;;;;20.88;15.70;;;409.90;2252.80;;;;;;5092487;28;20024;-85
2024/01/18 07:55:29;;;;;;;36.13;29.00;;;410.10;2176.00;;;;;;5092833;28;20047;-79
2024/01/18 07:57:55;;;;;;;50.30;37.78;;;410.20;2176.00;;;;;;5077077;28;20032;-84
2024/01/18 08:00:21;;;;;;;38.03;25.70;;;410.20;2176.00;;;;;;5081209;28;20039;-82
2024/01/18 08:02:47;;;;;;;36.45;23.17;;;410.40;2124.80;;;;;;5092099;28;20081;-83
2024/01/18 08:05:13;;;;;;;40.13;29.48;;;410.40;2150.40;;;;;;5092328;28;20021;-84
2024/01/18 08:07:38;;;;;;;25.27;16.42;;;410.50;2124.80;;;;;;5089932;28;20033;-85
2024/01/18 08:10:06;;;;;;;16.75;11.52;;;435.20;2124.80;;;;;;5080852;28;20477;-83
2024/01/18 08:12:33;;;;;;;16.42;9.68;;;435.30;2099.20;;;;;;5092005;28;20024;-83
2024/01/18 08:14:59;;;;;;;33.55;21.13;;;435.40;2073.60;;;;;;5092363;28;20044;-83
2024/01/18 08:17:25;;;;;;;18.80;10.68;;;435.50;2073.60;;;;;;5092205;28;20020;-84
2024/01/18 08:19:51;;;;;;;23.90;14.82;;;435.50;2073.60;;;;;;5091950;28;20044;-84
2024/01/18 08:22:18;;;;;;;31.80;25.45;;;435.60;2073.60;;;;;;5092181;28;20020;-84
2024/01/18 08:24:44;;;;;;;32.83;24.02;;;435.50;2099.20;;;;;;5081882;28;20028;-84
2024/01/18 08:27:11;;;;;;;40.28;32.10;;;435.50;2099.20;;;;;;5071746;28;20082;-75
2024/01/18 08:29:38;;;;;;;88.68;66.07;;;435.50;2099.20;;;;;;5071932;28;20023;-85
2024/01/18 08:32:04;;;;;;;107.18;73.53;;;435.50;2124.80;;;;;;5074676;28;20032;-81
2024/01/18 08:34:30;;;;;;;270.48;240.55;;;435.40;2124.80;;;;;;5091338;28;20028;-82
2024/01/18 08:36:56;;;;;;;278.25;230.60;;;435.50;2150.40;;;;;;5075631;28;20029;-83
2024/01/18 08:39:21;;;;;;;134.70;118.72;;;435.40;2176.00;;;;;;5081533;28;20055;-84
2024/01/18 08:41:47;;;;;;;196.80;155.20;;;435.40;2176.00;;;;;;5091673;28;20027;-84
2024/01/18 08:44:13;;;;;;;212.80;162.93;;;435.40;2176.00;;;;;;5091522;28;20047;-84
2024/01/18 08:46:39;;;;;;;98.45;65.75;;;435.50;2150.40;;;;;;5091749;28;20157;-74
2024/01/18 08:49:05;;;;;;;81.90;60.38;;;435.60;2124.80;;;;;;5091599;28;20020;-85
2024/01/18 08:51:31;;;;;;;240.82;181.13;;;435.60;2124.80;;;;;;5091416;28;20487;-84
2024/01/18 08:53:57;;;;;;;144.95;90.07;;;435.80;2124.80;;;;;;5091761;28;20024;-83
2024/01/18 08:56:23;;;;;;;74.18;42.88;;;435.90;2099.20;;;;;;5091360;28;20016;-83
2024/01/18 08:58:49;;;;;;;142.45;103.13;;;436.10;2073.60;;;;;;5091642;28;20024;-83
2024/01/18 09:01:15;;;;;;;94.32;61.58;;;461.10;2073.60;;;;;;5077519;28;20023;-78
2024/01/18 09:03:41;;;;;;;35.95;21.65;;;461.70;1996.80;;;;;;5090571;28;20048;-84
2024/01/18 09:06:06;;;;;;;184.57;142.10;;;486.80;1945.60;;;;;;5090057;28;20371;-82
2024/01/18 09:08:35;;;;;;;90.97;71.25;;;487.10;1945.60;;;;;;5090845;28;20086;-84
2024/01/18 09:11:01;;;;;;;89.45;73.57;;;487.10;1945.60;;;;;;5086722;28;20474;-84
2024/01/18 09:13:27;;;;;;;289.75;239.18;;;487.30;1920.00;;;;;;5081991;28;20016;-81
2024/01/18 09:15:53;;;;;;;222.98;189.73;;;487.30;1945.60;;;;;;5090862;28;20027;-85
2024/01/18 09:18:19;;;;;;;179.20;142.40;;;512.90;1920.00;;;;;;5090776;28;20118;-85
2024/01/18 09:20:45;;;;;;;109.30;81.90;;;538.40;1843.20;;;;;;5085924;28;20056;-85
2024/01/18 09:23:12;;;;;;;123.15;100.75;;;564.10;1792.00;;;;;;5082087;28;20028;-83
2024/01/18 09:25:39;;;;;;;142.85;120.63;;;589.30;1740.80;;;;;;5086122;28;20058;-84
2024/01/18 09:28:07;;;;;;;119.07;95.70;;;614.80;1715.20;;;;;;5070682;28;20036;-81
2024/01/18 09:30:34;;;;;;;173.45;146.20;;;615.10;1664.00;;;;;;5088334;28;20414;-84
2024/01/18 09:33:01;;;;;;;87.63;76.55;;;615.30;1638.40;;;;;;5090676;28;20057;-81
2024/01/18 09:35:27;;;;;;;100.03;88.93;;;640.20;1612.80;;;;;;5090705;28;20072;-84
2024/01/18 09:37:53;;;;;;;80.28;68.10;;;640.20;1587.20;;;;;;5090824;28;20024;-84
2024/01/18 09:40:19;;;;;;;43.92;39.13;;;615.20;1587.20;;;;;;5091017;28;20073;-86
2024/01/18 09:42:46;;;;;;;60.22;49.78;;;615.20;1561.60;;;;;;5090975;28;20473;-85
2024/01/18 09:45:14;;;;;;;102.93;87.18;;;640.20;1587.20;;;;;;5090389;28;20082;-84
2024/01/18 09:47:42;;;;;;;82.15;68.88;;;640.90;1536.00;;;;;;5090417;28;20064;-82
2024/01/18 09:50:09;;;;;;;86.13;76.70;;;665.90;1536.00;;;;;;5089374;28;20024;-85
2024/01/18 09:52:35;;;;;;;23.33;14.35;;;665.90;1510.40;;;;;;5090997;28;20027;-82
2024/01/18 09:55:01;;;;;;;23.67;14.02;;;665.60;1510.40;;;;;;5090324;28;20046;-86
2024/01/18 09:57:32;;;;;;;152.20;122.57;;;665.70;1536.00;;;;;;5090901;28;20024;-85
2024/01/18 10:00:03;;;;;;;175.77;135.75;;;640.00;1561.60;;;;;;5090615;28;20024;-86
2024/01/18 10:02:29;;;;;;;29.38;21.50;;;640.50;1536.00;;;;;;5077788;28;20199;-80
2024/01/18 10:05:00;;;;;;;27.77;20.05;;;640.40;1587.20;;;;;;5090367;28;20436;-87
2024/01/18 10:07:26;;;;;;;19.40;12.93;;;614.90;1587.20;;;;;;5090416;28;20028;-87
2024/01/18 10:09:52;;;;;;;53.65;43.20;;;614.50;1638.40;;;;;;5090183;28;20047;-84
2024/01/18 10:12:19;;;;;;;31.42;23.30;;;589.50;1689.60;;;;;;5090265;28;20139;-85
2024/01/18 10:14:46;;;;;;;21.42;18.23;;;589.30;1689.60;;;;;;5082156;28;20104;-85
2024/01/18 10:17:30;;;;;;;25.25;18.05;;;588.90;1664.00;;;;;;5085119;28;20077;-75
2024/01/18 10:19:56;;;;;;;19.20;16.27;;;564.10;1715.20;;;;;;5079451;28;20035;-87
2024/01/18 10:22:22;;;;;;;57.10;49.60;;;564.00;1664.00;;;;;;5074414;28;20058;-85
2024/01/18 10:24:49;;;;;;;49.38;35.50;;;563.90;1689.60;;;;;;5090383;28;20281;-83
2024/01/18 10:27:15;;;;;;;40.92;31.60;;;;;;;;;;5086250;28;20123;-87
2024/01/18 10:29:41;;;;;;;51.40;41.38;;;;;;;;;;5070012;28;20062;-83
2024/01/18 10:32:07;;;;;;;364.52;283.88;;;;;;;;;;5083517;28;20030;-84
2024/01/18 10:34:39;;;;;;;127.65;94.63;;;;;;;;;;5079894;28;20584;-82
2024/01/18 10:37:06;;;;;;;46.22;30.55;;;;;;;;;;5090205;28;20028;-83
2024/01/18 10:39:42;;;;;;;12.50;9.18;;;563.90;1689.60;;;;;;5090039;28;20013;-86
2024/01/18 10:42:12;;;;;;;16.13;11.32;;;;;;;;;;5089972;28;20047;-86
2024/01/18 10:44:45;;;;;;;25.55;17.48;;;;;;;;;;5075655;28;20027;-83
2024/01/18 10:47:12;;;;;;;100.22;69.97;;;;;;;;;;5068787;28;20478;-82
2024/01/18 10:49:38;;;;;;;45.95;25.27;;;;;;;;;;5069758;28;20105;-87
2024/01/18 10:52:04;;;;;;;59.22;37.38;;;563.50;1689.60;;;;;;5078185;28;20466;-87
2024/01/18 10:54:33;;;;;;;156.40;109.60;;;563.20;1715.20;;;;;;5089296;28;20485;-76
2024/01/18 10:56:59;;;;;;;107.38;76.65;;;563.20;1715.20;;;;;;5089879;28;20438;-87
2024/01/18 10:59:31;;;;;;;14.63;9.55;;;;;;;;;;5089593;28;20028;-86
2024/01/18 11:01:59;;;;;;;49.70;35.92;;;;;;;;;;5089830;28;20024;-86
2024/01/18 11:04:28;;;;;;;67.05;46.40;;;;;;;;;;5089078;28;20048;-76
2024/01/18 11:06:58;;;;;;;19.27;13.48;;;;;;;;;;5089786;28;20109;-85
2024/01/18 11:09:29;;;;;;;12.55;7.22;;;;;;;;;;5085467;28;20012;-84
2024/01/18 11:11:56;;;;;;;19.17;15.50;;;;;;;;;;5081306;28;20039;-86
2024/01/18 11:14:23;;;;;;;25.02;16.52;;;;;;;;;;5089360;28;20017;-87
2024/01/18 11:16:50;;;;;;;49.65;41.05;;;;;;;;;;5089370;28;20028;-86
2024/01/18 11:19:34;;;;;;;64.70;52.45;;;;;;;;;;5088738;28;20561;-82
2024/01/18 11:22:01;;;;;;;47.97;36.35;;;;;;;;;;5088957;28;20474;-79
2024/01/18 11:24:27;;;;;;;18.88;13.60;;;537.90;1766.40;;;;;;5089467;28;20493;-83
2024/01/18 11:26:57;;;;;;;9.20;5.25;;;537.60;1792.00;;;;;;5088876;28;20028;-84
2024/01/18 11:29:25;;;;;;;9.65;7.70;;;512.70;1792.00;;;;;;5089092;28;20111;-86
2024/01/18 11:31:51;;;;;;;19.13;10.80;;;512.50;1792.00;;;;;;5074044;28;20070;-86
2024/01/18 11:34:31;;;;;;;11.77;5.70;;;512.30;1817.60;;;;;;5077468;28;20032;-83
2024/01/18 11:37:14;;;;;;;11.02;5.45;;;512.10;1843.20;;;;;;5088996;28;20020;-85
2024/01/18 11:39:52;;;;;;;;;;;512.10;1843.20;;;;;;5089423;28;20442;-75
2024/01/18 11:42:29;;;;;;;11.65;9.63;;;512.00;1843.20;;;;;;5077024;28;20069;-72
2024/01/18 11:45:13;;;;;;;15.48;12.73;;;512.10;1843.20;;;;;;5077602;28;20070;-87
2024/01/18 11:47:39;;;;;;;15.57;11.95;;;512.00;1843.20;;;;;;5092806;28;20032;-87
2024/01/18 11:50:07;;;;;;;11.35;9.57;;;512.10;1843.20;;;;;;5079323;28;20073;-81
2024/01/18 11:52:43;;;;;;;16.60;11.85;;;512.10;1843.20;;;;;;5093016;28;20115;-85
2024/01/18 11:55:17;;;;;;;27.58;21.23;;;512.20;1868.80;;;;;;5092984;28;20024;-86
2024/01/18 11:57:43;;;;;;;14.68;10.63;;;512.10;1868.80;;;;;;5092324;28;20020;-86
2024/01/18 12:00:13;;;;;;;43.03;31.27;;;512.00;1843.20;;;;;;5084755;28;20036;-85
2024/01/18 12:02:41;;;;;;;41.63;25.02;;;512.00;1868.80;;;;;;5072207;28;20063;-88
2024/01/18 12:05:07;;;;;;;45.92;31.02;;;512.10;1868.80;;;;;;5072452;28;20025;-84
2024/01/18 12:07:34;;;;;;;35.40;26.75;;;512.00;1868.80;;;;;;5088458;28;20055;-85
2024/01/18 12:10:01;;;;;;;39.67;28.38;;;512.00;1868.80;;;;;;5083669;28;20013;-83